Main page
METAR-TAF:

METAR-TAF

Airports :

Sonari Airport

Jamshedpur, India

latitude: 22-48-49N, longitude: 086-10-05E, elevation: 146 m

Current weather observation

The report was made 9 hours and 32 minutes ago, at 12:00 UTC
Calm wind
Temperature 28°C
Humidity 66%
Pressure 1012 hPa
Visibility: 3000 m
haze

METAR: VEJS 281200Z 00000KT 3000 HZ NSC 28/21 Q1012

Time: 03:02 (21:32 UTC)

Forecast

The report was made 10 hours and 32 minutes ago, at 11:00 UTC
Forecast valid from 28 at 12 UTC to 28 at 21 UTC
Wind 3 kt from the East
Visibility: 4000 m
Scattered clouds at a height of 2000 ft
haze
Becoming
from 28 at 19 UTC to 28 at 21 UTC
Visibility: 3000 m
mist

TAF: VEJS 281100Z 2812/2821 09003KT 4000 HZ SCT020 BECMG 2819/2821 3000 BR NSC

Weather observations and forecasts of more than 4000 airports (METAR and TAF reports).

The available stations are represented by yellow and red dots on the map.

Hover mouse over dot to see the name of the station.

Then click to see weather observations and forecasts.

To change the map : click on the green buttons with a black cross to zoom in, on the green button with a dash to zoom out, or on the green arrows for adjacent maps.


METAR-TAF: